sensor_id;sensor_type;location;lat;lon;timestamp;temperature;humidity
40589;DHT22;26297;49.450;6.640;2023-08-20T00:02:13;22.30;99.90
40589;DHT22;26297;49.450;6.640;2023-08-20T00:05:17;22.30;99.90
40589;DHT22;26297;49.450;6.640;2023-08-20T00:08:20;22.30;99.90
40589;DHT22;26297;49.450;6.640;2023-08-20T00:11:23;22.30;99.90
40589;DHT22;26297;49.450;6.640;2023-08-20T00:14:59;22.30;99.90
40589;DHT22;26297;49.450;6.640;2023-08-20T00:18:07;22.30;99.90
40589;DHT22;26297;49.450;6.640;2023-08-20T00:21:11;22.30;99.90
40589;DHT22;26297;49.450;6.640;2023-08-20T00:24:14;22.30;99.90
40589;DHT22;26297;49.450;6.640;2023-08-20T00:27:18;22.30;99.90
40589;DHT22;26297;49.450;6.640;2023-08-20T00:30:21;22.30;99.90
40589;DHT22;26297;49.450;6.640;2023-08-20T00:33:25;22.30;99.90
40589;DHT22;26297;49.450;6.640;2023-08-20T00:36:28;22.30;99.90
40589;DHT22;26297;49.450;6.640;2023-08-20T00:39:31;22.30;99.90
40589;DHT22;26297;49.450;6.640;2023-08-20T00:42:34;22.30;99.90
40589;DHT22;26297;49.450;6.640;2023-08-20T00:45:37;22.30;99.90
40589;DHT22;26297;49.450;6.640;2023-08-20T00:48:40;22.30;99.90
40589;DHT22;26297;49.450;6.640;2023-08-20T00:51:43;22.30;99.90
40589;DHT22;26297;49.450;6.640;2023-08-20T00:54:47;22.30;99.90
40589;DHT22;26297;49.450;6.640;2023-08-20T00:57:51;22.30;99.90
40589;DHT22;26297;49.450;6.640;2023-08-20T01:00:54;22.30;99.90
40589;DHT22;26297;49.450;6.640;2023-08-20T01:03:57;22.30;99.90
40589;DHT22;26297;49.450;6.640;2023-08-20T01:11:07;22.30;99.90
40589;DHT22;26297;49.450;6.640;2023-08-20T01:14:15;22.30;99.90
40589;DHT22;26297;49.450;6.640;2023-08-20T01:17:19;22.30;99.90
40589;DHT22;26297;49.450;6.640;2023-08-20T01:20:27;22.30;99.90
40589;DHT22;26297;49.450;6.640;2023-08-20T01:29:38;22.30;99.90
40589;DHT22;26297;49.450;6.640;2023-08-20T01:32:42;22.30;99.90
40589;DHT22;26297;49.450;6.640;2023-08-20T01:35:45;22.30;99.90
40589;DHT22;26297;49.450;6.640;2023-08-20T01:38:48;22.30;99.90
40589;DHT22;26297;49.450;6.640;2023-08-20T01:41:51;22.20;99.90
40589;DHT22;26297;49.450;6.640;2023-08-20T01:44:54;22.30;99.90
40589;DHT22;26297;49.450;6.640;2023-08-20T01:47:57;22.30;99.90
40589;DHT22;26297;49.450;6.640;2023-08-20T01:51:00;22.30;99.90
40589;DHT22;26297;49.450;6.640;2023-08-20T01:54:04;22.30;99.90
40589;DHT22;26297;49.450;6.640;2023-08-20T01:57:07;22.20;99.90
40589;DHT22;26297;49.450;6.640;2023-08-20T02:00:11;22.30;99.90
40589;DHT22;26297;49.450;6.640;2023-08-20T02:03:14;22.30;99.90
40589;DHT22;26297;49.450;6.640;2023-08-20T02:06:17;22.30;99.90
40589;DHT22;26297;49.450;6.640;2023-08-20T02:09:20;22.30;99.90
40589;DHT22;26297;49.450;6.640;2023-08-20T02:12:25;22.30;99.90
40589;DHT22;26297;49.450;6.640;2023-08-20T02:15:28;22.30;99.90
40589;DHT22;26297;49.450;6.640;2023-08-20T02:18:31;22.30;99.90
40589;DHT22;26297;49.450;6.640;2023-08-20T02:21:34;22.30;99.90
40589;DHT22;26297;49.450;6.640;2023-08-20T02:24:37;22.30;99.90
40589;DHT22;26297;49.450;6.640;2023-08-20T02:27:40;22.30;99.90
40589;DHT22;26297;49.450;6.640;2023-08-20T02:30:45;22.30;99.90
40589;DHT22;26297;49.450;6.640;2023-08-20T02:33:48;22.30;99.90
40589;DHT22;26297;49.450;6.640;2023-08-20T02:36:50;22.30;99.90
40589;DHT22;26297;49.450;6.640;2023-08-20T02:39:54;22.30;99.90
40589;DHT22;26297;49.450;6.640;2023-08-20T02:42:57;22.30;99.90
40589;DHT22;26297;49.450;6.640;2023-08-20T02:45:59;22.30;99.90
40589;DHT22;26297;49.450;6.640;2023-08-20T02:49:02;22.30;99.90
40589;DHT22;26297;49.450;6.640;2023-08-20T02:52:05;22.20;99.90
40589;DHT22;26297;49.450;6.640;2023-08-20T02:55:08;22.20;99.90
40589;DHT22;26297;49.450;6.640;2023-08-20T02:58:11;22.20;99.90
40589;DHT22;26297;49.450;6.640;2023-08-20T03:01:26;22.20;99.90
40589;DHT22;26297;49.450;6.640;2023-08-20T03:04:29;22.20;99.90
40589;DHT22;26297;49.450;6.640;2023-08-20T03:07:32;22.20;99.90
40589;DHT22;26297;49.450;6.640;2023-08-20T03:10:35;22.20;99.90
40589;DHT22;26297;49.450;6.640;2023-08-20T03:13:38;22.20;99.90
40589;DHT22;26297;49.450;6.640;2023-08-20T03:16:41;22.10;99.90
40589;DHT22;26297;49.450;6.640;2023-08-20T03:19:55;22.10;99.90
40589;DHT22;26297;49.450;6.640;2023-08-20T03:22:59;22.10;99.90
40589;DHT22;26297;49.450;6.640;2023-08-20T03:26:02;22.10;99.90
40589;DHT22;26297;49.450;6.640;2023-08-20T03:29:05;22.10;99.90
40589;DHT22;26297;49.450;6.640;2023-08-20T03:32:08;22.20;99.90
40589;DHT22;26297;49.450;6.640;2023-08-20T03:35:12;22.20;99.90
40589;DHT22;26297;49.450;6.640;2023-08-20T03:38:15;22.20;99.90
40589;DHT22;26297;49.450;6.640;2023-08-20T03:41:18;22.20;99.90
40589;DHT22;26297;49.450;6.640;2023-08-20T03:44:21;22.20;99.90
40589;DHT22;26297;49.450;6.640;2023-08-20T03:47:24;22.10;99.90
40589;DHT22;26297;49.450;6.640;2023-08-20T03:50:27;22.20;99.90
40589;DHT22;26297;49.450;6.640;2023-08-20T03:53:30;22.20;99.90
40589;DHT22;26297;49.450;6.640;2023-08-20T03:56:33;22.20;99.90
40589;DHT22;26297;49.450;6.640;2023-08-20T03:59:36;22.20;99.90
40589;DHT22;26297;49.450;6.640;2023-08-20T04:02:39;22.20;99.90
40589;DHT22;26297;49.450;6.640;2023-08-20T04:05:42;22.20;99.90
40589;DHT22;26297;49.450;6.640;2023-08-20T04:08:45;22.20;99.90
40589;DHT22;26297;49.450;6.640;2023-08-20T04:11:49;22.20;99.90
40589;DHT22;26297;49.450;6.640;2023-08-20T04:14:51;22.20;99.90
40589;DHT22;26297;49.450;6.640;2023-08-20T04:17:54;22.10;99.90
40589;DHT22;26297;49.450;6.640;2023-08-20T04:20:58;22.10;99.90
40589;DHT22;26297;49.450;6.640;2023-08-20T04:24:00;22.10;99.90
40589;DHT22;26297;49.450;6.640;2023-08-20T04:27:03;22.10;99.90
40589;DHT22;26297;49.450;6.640;2023-08-20T04:30:07;22.10;99.90
40589;DHT22;26297;49.450;6.640;2023-08-20T04:33:10;22.10;99.90
40589;DHT22;26297;49.450;6.640;2023-08-20T04:36:13;22.10;99.90
40589;DHT22;26297;49.450;6.640;2023-08-20T04:39:17;22.10;99.90
40589;DHT22;26297;49.450;6.640;2023-08-20T04:42:20;22.10;99.90
40589;DHT22;26297;49.450;6.640;2023-08-20T04:45:24;22.10;99.90
40589;DHT22;26297;49.450;6.640;2023-08-20T04:48:27;22.10;99.90
40589;DHT22;26297;49.450;6.640;2023-08-20T04:51:30;22.10;99.90
40589;DHT22;26297;49.450;6.640;2023-08-20T04:54:33;22.10;99.90
40589;DHT22;26297;49.450;6.640;2023-08-20T04:57:36;22.20;99.90
40589;DHT22;26297;49.450;6.640;2023-08-20T05:00:39;22.10;99.90
40589;DHT22;26297;49.450;6.640;2023-08-20T05:03:42;22.10;99.90
40589;DHT22;26297;49.450;6.640;2023-08-20T05:06:44;22.10;99.90
40589;DHT22;26297;49.450;6.640;2023-08-20T05:09:47;22.10;99.90
40589;DHT22;26297;49.450;6.640;2023-08-20T05:12:50;22.10;99.90
40589;DHT22;26297;49.450;6.640;2023-08-20T05:15:54;22.10;99.90
40589;DHT22;26297;49.450;6.640;2023-08-20T05:18:57;22.10;99.90
40589;DHT22;26297;49.450;6.640;2023-08-20T05:22:00;22.10;99.90
40589;DHT22;26297;49.450;6.640;2023-08-20T05:25:03;22.10;99.90
40589;DHT22;26297;49.450;6.640;2023-08-20T05:28:06;22.10;99.90
40589;DHT22;26297;49.450;6.640;2023-08-20T05:31:12;22.10;99.90
40589;DHT22;26297;49.450;6.640;2023-08-20T05:34:15;22.10;99.90
40589;DHT22;26297;49.450;6.640;2023-08-20T05:37:19;22.10;99.90
40589;DHT22;26297;49.450;6.640;2023-08-20T05:40:22;22.10;99.90
40589;DHT22;26297;49.450;6.640;2023-08-20T05:43:25;22.10;99.90
40589;DHT22;26297;49.450;6.640;2023-08-20T05:46:28;22.10;99.90
40589;DHT22;26297;49.450;6.640;2023-08-20T05:49:31;22.10;99.90
40589;DHT22;26297;49.450;6.640;2023-08-20T05:52:35;22.00;99.90
40589;DHT22;26297;49.450;6.640;2023-08-20T05:55:38;22.00;99.90
40589;DHT22;26297;49.450;6.640;2023-08-20T05:58:42;22.10;99.90
40589;DHT22;26297;49.450;6.640;2023-08-20T06:01:45;22.10;99.90
40589;DHT22;26297;49.450;6.640;2023-08-20T06:04:48;22.10;99.90
40589;DHT22;26297;49.450;6.640;2023-08-20T06:07:53;22.10;99.90
40589;DHT22;26297;49.450;6.640;2023-08-20T06:10:56;22.10;99.90
40589;DHT22;26297;49.450;6.640;2023-08-20T06:13:59;22.10;99.90
40589;DHT22;26297;49.450;6.640;2023-08-20T06:17:02;22.10;99.90
40589;DHT22;26297;49.450;6.640;2023-08-20T06:20:05;22.10;99.90
40589;DHT22;26297;49.450;6.640;2023-08-20T06:23:10;22.10;99.90
40589;DHT22;26297;49.450;6.640;2023-08-20T06:26:15;22.10;99.90
40589;DHT22;26297;49.450;6.640;2023-08-20T06:29:18;22.10;99.90
40589;DHT22;26297;49.450;6.640;2023-08-20T06:32:21;22.00;99.90
40589;DHT22;26297;49.450;6.640;2023-08-20T06:35:24;22.00;99.90
40589;DHT22;26297;49.450;6.640;2023-08-20T06:38:27;22.00;99.90
40589;DHT22;26297;49.450;6.640;2023-08-20T06:41:30;22.00;99.90
40589;DHT22;26297;49.450;6.640;2023-08-20T06:44:33;22.00;99.90
40589;DHT22;26297;49.450;6.640;2023-08-20T06:47:35;22.00;99.90
40589;DHT22;26297;49.450;6.640;2023-08-20T06:50:40;22.00;99.90
40589;DHT22;26297;49.450;6.640;2023-08-20T06:53:43;22.00;99.90
40589;DHT22;26297;49.450;6.640;2023-08-20T06:56:46;22.00;99.90
40589;DHT22;26297;49.450;6.640;2023-08-20T06:59:49;22.00;99.90
40589;DHT22;26297;49.450;6.640;2023-08-20T07:02:52;22.00;99.90
40589;DHT22;26297;49.450;6.640;2023-08-20T07:05:55;22.00;99.90
40589;DHT22;26297;49.450;6.640;2023-08-20T07:08:58;22.00;99.90
40589;DHT22;26297;49.450;6.640;2023-08-20T07:12:01;22.00;99.90
40589;DHT22;26297;49.450;6.640;2023-08-20T07:15:06;22.10;99.90
40589;DHT22;26297;49.450;6.640;2023-08-20T07:18:09;22.10;99.90
40589;DHT22;26297;49.450;6.640;2023-08-20T07:21:16;22.10;99.90
40589;DHT22;26297;49.450;6.640;2023-08-20T07:24:20;22.10;99.90
40589;DHT22;26297;49.450;6.640;2023-08-20T07:27:28;22.10;99.90
40589;DHT22;26297;49.450;6.640;2023-08-20T07:30:31;22.10;99.90
40589;DHT22;26297;49.450;6.640;2023-08-20T07:33:34;22.10;99.90
40589;DHT22;26297;49.450;6.640;2023-08-20T07:36:37;22.10;99.90
40589;DHT22;26297;49.450;6.640;2023-08-20T07:39:41;22.10;99.90
40589;DHT22;26297;49.450;6.640;2023-08-20T07:42:44;22.10;99.90
40589;DHT22;26297;49.450;6.640;2023-08-20T07:45:47;22.10;99.90
40589;DHT22;26297;49.450;6.640;2023-08-20T07:48:51;22.10;99.90
40589;DHT22;26297;49.450;6.640;2023-08-20T07:52:03;22.10;99.90
40589;DHT22;26297;49.450;6.640;2023-08-20T07:55:15;22.10;99.90
40589;DHT22;26297;49.450;6.640;2023-08-20T07:58:18;22.20;99.90
40589;DHT22;26297;49.450;6.640;2023-08-20T08:01:21;22.10;99.90
40589;DHT22;26297;49.450;6.640;2023-08-20T08:04:25;22.20;99.90
40589;DHT22;26297;49.450;6.640;2023-08-20T08:07:28;22.20;99.90
40589;DHT22;26297;49.450;6.640;2023-08-20T08:10:34;22.20;99.90
40589;DHT22;26297;49.450;6.640;2023-08-20T08:13:40;22.20;99.90
40589;DHT22;26297;49.450;6.640;2023-08-20T08:16:46;22.20;99.90
40589;DHT22;26297;49.450;6.640;2023-08-20T08:19:52;22.20;99.90
40589;DHT22;26297;49.450;6.640;2023-08-20T08:22:58;22.30;99.90
40589;DHT22;26297;49.450;6.640;2023-08-20T08:26:01;22.30;99.90
40589;DHT22;26297;49.450;6.640;2023-08-20T08:29:06;22.30;99.90
40589;DHT22;26297;49.450;6.640;2023-08-20T08:32:09;22.30;99.90
40589;DHT22;26297;49.450;6.640;2023-08-20T08:35:12;22.30;99.90
40589;DHT22;26297;49.450;6.640;2023-08-20T08:38:15;22.40;99.90
40589;DHT22;26297;49.450;6.640;2023-08-20T08:41:23;22.40;99.90
40589;DHT22;26297;49.450;6.640;2023-08-20T08:44:28;22.40;99.90
40589;DHT22;26297;49.450;6.640;2023-08-20T08:47:32;22.40;99.90
40589;DHT22;26297;49.450;6.640;2023-08-20T08:50:37;22.40;99.90
40589;DHT22;26297;49.450;6.640;2023-08-20T08:53:44;22.40;99.90
40589;DHT22;26297;49.450;6.640;2023-08-20T08:56:47;22.40;99.90
40589;DHT22;26297;49.450;6.640;2023-08-20T08:59:50;22.40;99.90
40589;DHT22;26297;49.450;6.640;2023-08-20T09:02:54;22.40;99.90
40589;DHT22;26297;49.450;6.640;2023-08-20T09:06:00;22.40;99.90
40589;DHT22;26297;49.450;6.640;2023-08-20T09:09:06;22.40;99.90
40589;DHT22;26297;49.450;6.640;2023-08-20T09:15:17;22.30;99.90
40589;DHT22;26297;49.450;6.640;2023-08-20T09:18:24;22.30;99.90
40589;DHT22;26297;49.450;6.640;2023-08-20T09:21:28;22.40;99.90
40589;DHT22;26297;49.450;6.640;2023-08-20T09:27:46;22.40;99.90
40589;DHT22;26297;49.450;6.640;2023-08-20T09:30:57;22.40;99.90
40589;DHT22;26297;49.450;6.640;2023-08-20T09:34:00;22.50;99.90
40589;DHT22;26297;49.450;6.640;2023-08-20T09:37:03;22.50;99.90
40589;DHT22;26297;49.450;6.640;2023-08-20T09:40:06;22.50;99.90
40589;DHT22;26297;49.450;6.640;2023-08-20T09:43:11;22.50;99.90
40589;DHT22;26297;49.450;6.640;2023-08-20T09:46:26;22.50;99.90
40589;DHT22;26297;49.450;6.640;2023-08-20T09:49:35;22.50;99.90
40589;DHT22;26297;49.450;6.640;2023-08-20T09:52:42;22.50;99.90
40589;DHT22;26297;49.450;6.640;2023-08-20T09:55:56;22.50;99.90
40589;DHT22;26297;49.450;6.640;2023-08-20T09:59:07;22.40;99.90
40589;DHT22;26297;49.450;6.640;2023-08-20T10:02:12;22.50;99.90
40589;DHT22;26297;49.450;6.640;2023-08-20T10:05:19;22.50;99.90
40589;DHT22;26297;49.450;6.640;2023-08-20T10:08:30;22.50;99.90
40589;DHT22;26297;49.450;6.640;2023-08-20T10:11:33;22.40;99.90
40589;DHT22;26297;49.450;6.640;2023-08-20T10:14:36;22.40;99.90
40589;DHT22;26297;49.450;6.640;2023-08-20T10:17:41;22.40;99.90
40589;DHT22;26297;49.450;6.640;2023-08-20T10:20:45;22.40;99.90
40589;DHT22;26297;49.450;6.640;2023-08-20T10:23:49;22.40;99.90
40589;DHT22;26297;49.450;6.640;2023-08-20T10:27:10;22.40;99.90
40589;DHT22;26297;49.450;6.640;2023-08-20T10:30:19;22.40;99.90
40589;DHT22;26297;49.450;6.640;2023-08-20T10:33:24;22.40;99.90
40589;DHT22;26297;49.450;6.640;2023-08-20T10:36:27;22.40;99.90
40589;DHT22;26297;49.450;6.640;2023-08-20T10:39:31;22.40;99.90
40589;DHT22;26297;49.450;6.640;2023-08-20T10:42:41;22.40;99.90
40589;DHT22;26297;49.450;6.640;2023-08-20T10:45:46;22.30;99.90
40589;DHT22;26297;49.450;6.640;2023-08-20T10:49:04;22.40;99.90
40589;DHT22;26297;49.450;6.640;2023-08-20T10:52:09;22.40;99.90
40589;DHT22;26297;49.450;6.640;2023-08-20T10:55:13;22.50;99.90
40589;DHT22;26297;49.450;6.640;2023-08-20T10:58:17;22.50;99.90
40589;DHT22;26297;49.450;6.640;2023-08-20T11:01:22;22.50;99.90
40589;DHT22;26297;49.450;6.640;2023-08-20T11:04:29;22.50;99.90
40589;DHT22;26297;49.450;6.640;2023-08-20T11:07:35;22.50;99.90
40589;DHT22;26297;49.450;6.640;2023-08-20T11:10:38;22.50;99.90
40589;DHT22;26297;49.450;6.640;2023-08-20T11:13:41;22.50;99.90
40589;DHT22;26297;49.450;6.640;2023-08-20T11:16:46;22.50;99.90
40589;DHT22;26297;49.450;6.640;2023-08-20T11:19:50;22.60;99.90
40589;DHT22;26297;49.450;6.640;2023-08-20T11:22:54;22.60;99.90
40589;DHT22;26297;49.450;6.640;2023-08-20T11:26:00;22.60;99.90
40589;DHT22;26297;49.450;6.640;2023-08-20T11:29:07;22.60;99.90
40589;DHT22;26297;49.450;6.640;2023-08-20T11:32:11;22.60;99.90
40589;DHT22;26297;49.450;6.640;2023-08-20T11:35:17;22.60;99.90
40589;DHT22;26297;49.450;6.640;2023-08-20T11:38:28;22.60;99.90
40589;DHT22;26297;49.450;6.640;2023-08-20T11:46:24;22.60;99.90
40589;DHT22;26297;49.450;6.640;2023-08-20T12:10:52;22.60;99.90
40589;DHT22;26297;49.450;6.640;2023-08-20T12:13:56;22.60;99.90
40589;DHT22;26297;49.450;6.640;2023-08-20T12:17:00;22.60;99.90
40589;DHT22;26297;49.450;6.640;2023-08-20T12:37:21;22.80;99.90
40589;DHT22;26297;49.450;6.640;2023-08-20T12:45:00;22.60;99.90
40589;DHT22;26297;49.450;6.640;2023-08-20T12:48:03;22.70;99.90
40589;DHT22;26297;49.450;6.640;2023-08-20T12:51:06;22.70;99.90
40589;DHT22;26297;49.450;6.640;2023-08-20T13:06:53;22.80;99.90
40589;DHT22;26297;49.450;6.640;2023-08-20T13:27:40;22.70;99.90
40589;DHT22;26297;49.450;6.640;2023-08-20T13:42:49;22.90;99.90
40589;DHT22;26297;49.450;6.640;2023-08-20T13:45:54;22.90;99.90
40589;DHT22;26297;49.450;6.640;2023-08-20T13:48:57;23.00;99.90
40589;DHT22;26297;49.450;6.640;2023-08-20T13:52:06;23.00;99.90
40589;DHT22;26297;49.450;6.640;2023-08-20T13:55:10;23.00;99.90
40589;DHT22;26297;49.450;6.640;2023-08-20T13:58:14;23.00;99.90
40589;DHT22;26297;49.450;6.640;2023-08-20T14:01:17;23.00;99.90
40589;DHT22;26297;49.450;6.640;2023-08-20T14:04:20;23.10;99.90
40589;DHT22;26297;49.450;6.640;2023-08-20T14:07:24;23.10;99.90
40589;DHT22;26297;49.450;6.640;2023-08-20T14:10:32;23.10;99.90
40589;DHT22;26297;49.450;6.640;2023-08-20T14:13:36;23.00;99.90
40589;DHT22;26297;49.450;6.640;2023-08-20T14:16:39;23.10;99.90
40589;DHT22;26297;49.450;6.640;2023-08-20T14:19:43;23.20;99.90
40589;DHT22;26297;49.450;6.640;2023-08-20T14:22:47;23.20;99.90
40589;DHT22;26297;49.450;6.640;2023-08-20T14:25:50;23.20;99.90
40589;DHT22;26297;49.450;6.640;2023-08-20T14:28:53;23.30;99.90
40589;DHT22;26297;49.450;6.640;2023-08-20T14:31:57;23.40;99.90
40589;DHT22;26297;49.450;6.640;2023-08-20T14:35:00;23.40;99.90
40589;DHT22;26297;49.450;6.640;2023-08-20T14:38:03;23.40;99.90
40589;DHT22;26297;49.450;6.640;2023-08-20T14:41:10;23.30;99.90
40589;DHT22;26297;49.450;6.640;2023-08-20T14:44:13;23.40;99.90
40589;DHT22;26297;49.450;6.640;2023-08-20T14:47:16;23.40;99.90
40589;DHT22;26297;49.450;6.640;2023-08-20T14:50:20;23.30;99.90
40589;DHT22;26297;49.450;6.640;2023-08-20T14:53:25;23.20;99.90
40589;DHT22;26297;49.450;6.640;2023-08-20T14:56:28;23.30;99.90
40589;DHT22;26297;49.450;6.640;2023-08-20T14:59:32;23.20;99.90
40589;DHT22;26297;49.450;6.640;2023-08-20T15:02:36;23.20;99.90
40589;DHT22;26297;49.450;6.640;2023-08-20T15:19:38;23.40;99.90
40589;DHT22;26297;49.450;6.640;2023-08-20T16:56:22;23.10;99.90
40589;DHT22;26297;49.450;6.640;2023-08-20T17:07:52;23.10;99.90
40589;DHT22;26297;49.450;6.640;2023-08-20T17:11:20;23.10;99.90
40589;DHT22;26297;49.450;6.640;2023-08-20T17:27:18;23.30;99.90
40589;DHT22;26297;49.450;6.640;2023-08-20T17:38:31;22.90;99.90
40589;DHT22;26297;49.450;6.640;2023-08-20T17:41:34;22.90;99.90
40589;DHT22;26297;49.450;6.640;2023-08-20T17:44:38;22.80;99.90
40589;DHT22;26297;49.450;6.640;2023-08-20T17:47:41;22.80;99.90
40589;DHT22;26297;49.450;6.640;2023-08-20T17:50:47;22.70;99.90
40589;DHT22;26297;49.450;6.640;2023-08-20T17:53:53;22.70;99.90
40589;DHT22;26297;49.450;6.640;2023-08-20T17:56:57;22.70;99.90
40589;DHT22;26297;49.450;6.640;2023-08-20T18:00:00;22.60;99.90
40589;DHT22;26297;49.450;6.640;2023-08-20T18:03:03;22.60;99.90
40589;DHT22;26297;49.450;6.640;2023-08-20T18:06:06;22.60;99.90
40589;DHT22;26297;49.450;6.640;2023-08-20T18:09:09;22.60;99.90
40589;DHT22;26297;49.450;6.640;2023-08-20T18:12:13;22.60;99.90
40589;DHT22;26297;49.450;6.640;2023-08-20T18:15:16;22.60;99.90
40589;DHT22;26297;49.450;6.640;2023-08-20T18:18:19;22.60;99.90
40589;DHT22;26297;49.450;6.640;2023-08-20T18:21:24;22.60;99.90
40589;DHT22;26297;49.450;6.640;2023-08-20T18:24:27;22.60;99.90
40589;DHT22;26297;49.450;6.640;2023-08-20T18:27:30;22.60;99.90
40589;DHT22;26297;49.450;6.640;2023-08-20T18:30:33;22.60;99.90
40589;DHT22;26297;49.450;6.640;2023-08-20T18:33:36;22.60;99.90
40589;DHT22;26297;49.450;6.640;2023-08-20T18:36:39;22.60;99.90
40589;DHT22;26297;49.450;6.640;2023-08-20T18:39:49;22.60;99.90
40589;DHT22;26297;49.450;6.640;2023-08-20T18:42:55;22.60;99.90
40589;DHT22;26297;49.450;6.640;2023-08-20T19:06:52;22.60;99.90
40589;DHT22;26297;49.450;6.640;2023-08-20T19:13:55;22.70;99.90
40589;DHT22;26297;49.450;6.640;2023-08-20T19:17:13;22.60;99.90
40589;DHT22;26297;49.450;6.640;2023-08-20T19:28:33;22.70;99.90
40589;DHT22;26297;49.450;6.640;2023-08-20T19:31:39;22.70;99.90
40589;DHT22;26297;49.450;6.640;2023-08-20T20:00:49;22.80;99.90
40589;DHT22;26297;49.450;6.640;2023-08-20T20:03:58;22.80;99.90
40589;DHT22;26297;49.450;6.640;2023-08-20T20:07:01;22.80;99.90
40589;DHT22;26297;49.450;6.640;2023-08-20T20:10:05;22.80;99.90
40589;DHT22;26297;49.450;6.640;2023-08-20T20:13:08;22.80;99.90
40589;DHT22;26297;49.450;6.640;2023-08-20T20:16:15;22.80;99.90
40589;DHT22;26297;49.450;6.640;2023-08-20T20:19:18;22.80;99.90
40589;DHT22;26297;49.450;6.640;2023-08-20T20:22:22;22.80;99.90
40589;DHT22;26297;49.450;6.640;2023-08-20T20:25:28;22.80;99.90
40589;DHT22;26297;49.450;6.640;2023-08-20T20:28:31;22.80;99.90
40589;DHT22;26297;49.450;6.640;2023-08-20T20:31:34;22.80;99.90
40589;DHT22;26297;49.450;6.640;2023-08-20T20:34:40;22.80;99.90
40589;DHT22;26297;49.450;6.640;2023-08-20T20:37:45;22.80;99.90
40589;DHT22;26297;49.450;6.640;2023-08-20T20:40:50;22.80;99.90
40589;DHT22;26297;49.450;6.640;2023-08-20T20:43:53;22.80;99.90
40589;DHT22;26297;49.450;6.640;2023-08-20T20:46:56;22.80;99.90
40589;DHT22;26297;49.450;6.640;2023-08-20T20:50:00;22.80;99.90
40589;DHT22;26297;49.450;6.640;2023-08-20T20:53:06;22.80;99.90
40589;DHT22;26297;49.450;6.640;2023-08-20T20:56:12;22.80;99.90
40589;DHT22;26297;49.450;6.640;2023-08-20T20:59:15;22.80;99.90
40589;DHT22;26297;49.450;6.640;2023-08-20T21:02:18;22.80;99.90
40589;DHT22;26297;49.450;6.640;2023-08-20T21:05:21;22.80;99.90
40589;DHT22;26297;49.450;6.640;2023-08-20T21:08:25;22.80;99.90
40589;DHT22;26297;49.450;6.640;2023-08-20T21:11:28;22.80;99.90
40589;DHT22;26297;49.450;6.640;2023-08-20T21:14:31;22.90;99.90
40589;DHT22;26297;49.450;6.640;2023-08-20T21:17:34;22.90;99.90
40589;DHT22;26297;49.450;6.640;2023-08-20T21:25:18;22.90;99.90
40589;DHT22;26297;49.450;6.640;2023-08-20T21:51:03;22.80;99.90
40589;DHT22;26297;49.450;6.640;2023-08-20T22:20:42;22.80;99.90
40589;DHT22;26297;49.450;6.640;2023-08-20T22:23:45;22.80;99.90
40589;DHT22;26297;49.450;6.640;2023-08-20T22:26:48;22.80;99.90
40589;DHT22;26297;49.450;6.640;2023-08-20T22:29:52;22.80;99.90
40589;DHT22;26297;49.450;6.640;2023-08-20T22:32:55;22.80;99.90
40589;DHT22;26297;49.450;6.640;2023-08-20T22:35:58;22.80;99.90
40589;DHT22;26297;49.450;6.640;2023-08-20T22:39:01;22.80;99.90
40589;DHT22;26297;49.450;6.640;2023-08-20T22:42:05;22.80;99.90
40589;DHT22;26297;49.450;6.640;2023-08-20T22:45:08;22.80;99.90
40589;DHT22;26297;49.450;6.640;2023-08-20T22:48:12;22.80;99.90
40589;DHT22;26297;49.450;6.640;2023-08-20T22:51:15;22.80;99.90
40589;DHT22;26297;49.450;6.640;2023-08-20T22:54:18;22.80;99.90
40589;DHT22;26297;49.450;6.640;2023-08-20T22:57:21;22.80;99.90
40589;DHT22;26297;49.450;6.640;2023-08-20T23:00:24;22.80;99.90
40589;DHT22;26297;49.450;6.640;2023-08-20T23:03:27;22.80;99.90
40589;DHT22;26297;49.450;6.640;2023-08-20T23:06:30;22.70;99.90
40589;DHT22;26297;49.450;6.640;2023-08-20T23:09:34;22.80;99.90
40589;DHT22;26297;49.450;6.640;2023-08-20T23:12:37;22.70;99.90
40589;DHT22;26297;49.450;6.640;2023-08-20T23:15:40;22.70;99.90
40589;DHT22;26297;49.450;6.640;2023-08-20T23:18:43;22.70;99.90
40589;DHT22;26297;49.450;6.640;2023-08-20T23:21:46;22.70;99.90
40589;DHT22;26297;49.450;6.640;2023-08-20T23:24:49;22.70;99.90
40589;DHT22;26297;49.450;6.640;2023-08-20T23:27:52;22.70;99.90
40589;DHT22;26297;49.450;6.640;2023-08-20T23:30:56;22.70;99.90
40589;DHT22;26297;49.450;6.640;2023-08-20T23:33:59;22.70;99.90
40589;DHT22;26297;49.450;6.640;2023-08-20T23:37:03;22.70;99.90
40589;DHT22;26297;49.450;6.640;2023-08-20T23:40:07;22.70;99.90
40589;DHT22;26297;49.450;6.640;2023-08-20T23:43:10;22.70;99.90
40589;DHT22;26297;49.450;6.640;2023-08-20T23:46:13;22.70;99.90
40589;DHT22;26297;49.450;6.640;2023-08-20T23:49:17;22.70;99.90
40589;DHT22;26297;49.450;6.640;2023-08-20T23:52:20;22.70;99.90
40589;DHT22;26297;49.450;6.640;2023-08-20T23:55:24;22.70;99.90
40589;DHT22;26297;49.450;6.640;2023-08-20T23:58:27;22.70;99.90
